Hugo Teixeira

Scout - Vitoria Guimaraes
3 Apr 2027
Samstag
Verarbeitung

Persönlichkeit

Anpassungsfähigkeit (18) Ehrgeiz (4) Kontroverse (9) Loyalität (6) Druck (11) Professionalität (17) Fairness (13) Temperament (5)

Profil

Trainerstil Demokratisch
Lizenz Nationale A
Entschlossenheit 8
Menschenführung 7
Motivation 5
Disziplin 6
Arbeitszufriedenheit
50%
Ermüdung
0%
Rolle Scout
Gehalt 60.5K p/W
Vertrag 14.03.2029

Leistung

Verhalten Normal
Trainingseffektivität
24%
Spielerentwicklung
50%
Verletzungsprävention
55%
Taktische Umsetzung
55%

Letzte Ereignisse

Spieler begutachtet jetzt
Spieler begutachtet 7T her
Nahm an einer Scouting-Besprechung teil 7T her
Spieler begutachtet 7T her
Spieler begutachtet 7T her
Spieler begutachtet 7T her
Spieler begutachtet 7T her
Spieler begutachtet 14T her

Aktuell beobachtet

127
Spieler Verein Status Fähigkeit Vertrauen Beobachtet Zuletzt beobachtet Letzte Stimme
Mathis Amougou RC Strasbourg Aktiv 117 / 109 40% 3 30.03.2027 -
Joseph Jones Kryvbas Aktiv 80 / 95 40% 1 30.03.2027 -
Vanja Dragojević Partizan Aktiv 121 / 123 40% 1 30.03.2027 -
Arjan Malić Sturm Graz Aktiv 111 / 130 40% 2 29.03.2027 -
Elie N'Gatta Sochaux Aktiv 87 / 95 40% 1 29.03.2027 -
Riyad Idrissi Cagliari Aktiv 125 / 126 40% 1 29.03.2027 -
Jon Ander Olasagasti Levante Aktiv 132 / 114 40% 2 27.03.2027 -
Xavi Sintes Estoril Praia Aktiv 127 / 123 40% 1 27.03.2027 -
Danilo Botafogo Aktiv 145 / 133 40% 1 27.03.2027 -
Marvin Elimbi Gil Vicente Aktiv 124 / 133 40% 4 26.03.2027 -
Kostiantyn Vivcharenko Dynamo Kyiv Aktiv 128 / 119 40% 2 26.03.2027 -
Marcus Holmgren Pedersen Olympiacos Aktiv 132 / 146 40% 1 26.03.2027 -
Luke Thomas Leicester City Aktiv 128 / 126 40% 3 25.03.2027 -
Arsenii Batahov Trabzonspor Aktiv 138 / 119 40% 1 25.03.2027 -
Alexandr Chernikov Krasnodar Aktiv 143 / 144 40% 2 24.03.2027 -
Bruno Fuchs Palmeiras Aktiv 131 / 115 40% 1 24.03.2027 -
Junior Tchamadeu Stoke City Aktiv 131 / 133 40% 1 24.03.2027 -
Jakub Adkonis Lechia Aktiv 104 / 103 40% 2 22.03.2027 -
Sabil Hansen Randers Aktiv 104 / 107 40% 2 22.03.2027 -
Matheus Ferreira Sport Recife Aktiv 105 / 92 40% 1 22.03.2027 -
Alessandro Bianco Modena Aktiv 124 / 131 40% 2 21.03.2027 -
Jack Currie Oxford United Aktiv 128 / 131 40% 2 21.03.2027 -
Gonçalo Oliveira Benfica Aktiv 107 / 105 40% 1 21.03.2027 -
Martim Cunha Porto Aktiv 100 / 97 40% 2 19.03.2027 -
Rayhan Momade Sporting CP Aktiv 94 / 99 40% 1 19.03.2027 -
Kelvin Cruzeiro Aktiv 100 / 98 40% 1 19.03.2027 -
Nabil Touaizi Alverca Aktiv 125 / 127 40% 3 18.03.2027 -
Taichi Fukui Arouca Aktiv 124 / 118 40% 3 18.03.2027 -
Aiham Ousou Charleroi Aktiv 129 / 137 40% 2 18.03.2027 -
Luciano Juba Bahia Aktiv 140 / 132 40% 3 17.03.2027 -
Leonardo Realpe Famalicao Aktiv 132 / 123 40% 1 17.03.2027 -
Axel Tape Bayer Leverkusen Aktiv 127 / 124 40% 1 17.03.2027 -
Marlon Gomes Shakhtar Aktiv 138 / 150 40% 4 15.03.2027 -
Josh Edwards Charlton Athletic Aktiv 128 / 124 40% 1 15.03.2027 -
João Teixeira Porto Aktiv 111 / 114 40% 1 13.03.2027 -
Sergi Domínguez Dinamo Zagreb Aktiv 128 / 120 40% 1 13.03.2027 -
Nacer Tielemans Mouscron Aktiv 134 / 126 40% 4 12.03.2027 -
Pedro Henrique Shakhtar Aktiv 123 / 136 40% 2 12.03.2027 -
Bahia Corinthians Aktiv 102 / 120 40% 2 12.03.2027 -
Emanuel Aiwu Apollon Aktiv 124 / 124 40% 1 10.03.2027 -
Ignacio Perruzzi San Lorenzo Aktiv 112 / 126 40% 1 09.03.2027 -
João Capucho Benfica Aktiv 93 / 101 40% 1 09.03.2027 -
Mbekezeli Mbokazi Chicago Fire Aktiv 124 / 123 40% 1 09.03.2027 -
Raymond Agyemang Aduana Stars Aktiv 86 / 94 40% 1 08.03.2027 -
Arsen Adamov Akhmat Grozny Aktiv 126 / 122 40% 2 07.03.2027 -
Njegoš Petrović Vojvodina Aktiv 131 / 131 40% 1 07.03.2027 -
Juho Lähteenmäki FC Nordsjaelland Aktiv 126 / 135 40% 1 05.03.2027 -
Emerson Buiu Vitória Aktiv 103 / 106 40% 1 05.03.2027 -
Augusto Bando Ascoli Aktiv 96 / 113 40% 1 04.03.2027 -
Surprise Manthosi Polokwane City Aktiv 82 / 96 40% 1 04.03.2027 -
Zé Lucas Corinthians Aktiv 117 / 122 40% 1 04.03.2027 -
Filipe Relvas AEK Aktiv 138 / 127 40% 1 02.03.2027 -
Hugo Pérez Torreense Aktiv 115 / 113 40% 4 28.02.2027 -
Francisco Petrasso Rio Ave Aktiv 113 / 119 40% 1 19.02.2027 -
Freddie Potts Club Brugge Aktiv 130 / 137 40% 1 19.02.2027 -
Alexandr Siljanov Lokomotiv Moscow Aktiv 118 / 140 40% 1 16.02.2027 -
Zakaria El Ouahdi Racing Genk Aktiv 128 / 134 40% 2 14.02.2027 -
Simone Canestrelli Pisa Aktiv 130 / 136 40% 1 14.02.2027 -
Sondre Langås Derby County Aktiv 122 / 126 40% 1 11.02.2027 -
Franco Díaz KV Oostende Aktiv 130 / 113 40% 1 06.02.2027 -
Volodymyr Brazhko Dynamo Kyiv Aktiv 134 / 126 40% 1 03.02.2027 -
Sławomir Abramowicz Jagiellonia Aktiv 124 / 118 40% 1 25.01.2027 -
Sam Tickle Wigan Athletic Aktiv 125 / 133 40% 1 25.01.2027 -
Oleksandr Saputin Zorya Aktiv 118 / 119 40% 1 25.01.2027 -
Saba Sazonov Juve Stabia Aktiv 128 / 132 40% 1 18.01.2027 -
Matteo Dams Club Brugge Aktiv 129 / 133 40% 1 11.01.2027 -
Mike Eerdhuijzen KV Mechelen Aktiv 129 / 125 40% 1 11.01.2027 -
Lucas Lund Viborg Aktiv 107 / 101 40% 1 31.12.2026 -
Patrik Wålemark Lech Aktiv 118 / 134 40% 2 30.12.2026 -
Robert FC Copenhagen Aktiv 130 / 128 40% 2 30.12.2026 -
Charlie Webster Burton Albion Aktiv 111 / 112 40% 1 30.12.2026 -
David Turnbull Cardiff City Aktiv 119 / 121 40% 2 29.12.2026 -
Angelo Gattermayer Wolfsberger AC Aktiv 120 / 126 40% 1 29.12.2026 -
Miguel Reisinho Moreirense Aktiv 115 / 119 40% 2 27.12.2026 -
Alex Robertson Cardiff City Aktiv 115 / 127 40% 1 27.12.2026 -
Luis Quintero Torreense Aktiv 117 / 116 40% 2 21.12.2026 -
MT Santa Clara Aktiv 124 / 116 40% 2 21.12.2026 -
Reyes Cleary Barnsley Aktiv 108 / 116 40% 1 21.12.2026 -
Paulo Moreira Farense Aktiv 127 / 120 40% 1 18.12.2026 -
Martín Tejón Maritimo Aktiv 115 / 126 40% 1 17.12.2026 -
Yira Sor Racing Genk Aktiv 118 / 109 40% 1 17.12.2026 -
Oleh Ocheretko Shakhtar Aktiv 126 / 145 40% 1 17.12.2026 -
Facundo Pellistri Panathinaikos Aktiv 133 / 125 40% 1 11.12.2026 -
Tyreece Campbell Charlton Athletic Aktiv 116 / 116 40% 1 11.12.2026 -
Kyreece Lisbie Colchester United Aktiv 103 / 100 40% 2 10.12.2026 -
Zé Leite Oliveirense Aktiv 120 / 116 40% 1 10.12.2026 -
Juan Bezerra Zamalek Aktiv 121 / 116 40% 1 10.12.2026 -
Danil Glebov Dinamo Moscow Aktiv 118 / 116 40% 1 05.12.2026 -
Álvaro Martínez Moreirense Aktiv 106 / 116 40% 1 05.12.2026 -
Relebohile Mofokeng Orlando Pirates Aktiv 119 / 113 40% 2 04.12.2026 -
Emerson Batalla Atletico Bucaramanga Aktiv 132 / 135 40% 1 04.12.2026 -
Joelson Fernandes Gil Vicente Aktiv 120 / 126 40% 1 03.12.2026 -
Manu Pozo Torreense Aktiv 122 / 111 40% 1 02.12.2026 -
Helinho Toluca Aktiv 136 / 125 40% 3 26.11.2026 -
Diogo Pinto AVS Aktiv 109 / 106 40% 2 26.11.2026 -
Matheus Dias Nacional Aktiv 114 / 119 40% 1 26.11.2026 -
Lee Hyun-Ju Arouca Aktiv 126 / 130 40% 1 24.11.2026 -
Santiago Montiel Independiente Aktiv 139 / 110 40% 1 24.11.2026 -
Luís Guilherme Sporting CP Aktiv 129 / 123 40% 1 20.11.2026 -
Lorougnon Gohi Académico de Viseu Aktiv 119 / 111 40% 1 19.11.2026 -
Jordan Holsgrove Estoril Praia Aktiv 126 / 134 40% 1 19.11.2026 -
Diego Lainez Tigres Aktiv 130 / 116 40% 2 18.11.2026 -
Bayron Duarte Queretaro Aktiv 126 / 126 40% 2 18.11.2026 -
Alexis Cuello San Lorenzo Aktiv 134 / 109 40% 1 18.11.2026 -
Kevin Zenón Boca Juniors Aktiv 117 / 115 40% 1 17.11.2026 -
Brenner Santa Clara Aktiv 122 / 106 40% 1 17.11.2026 -
Melker Widell Swansea City Aktiv 127 / 113 40% 1 16.11.2026 -
Pedro Vite Pumas UNAM Aktiv 128 / 111 40% 2 14.11.2026 -
Facundo Torres Shakhtar Aktiv 132 / 128 40% 1 14.11.2026 -
Brian Gutiérrez Guadalajara Aktiv 138 / 127 40% 1 14.11.2026 -
Franco Romero Toluca Aktiv 133 / 137 40% 1 12.11.2026 -
César Huerta Pumas UNAM Aktiv 120 / 117 40% 2 10.11.2026 -
Ali Soliman Masr El Makasa Aktiv 131 / 112 40% 1 10.11.2026 -
Jefry Zapata Once Caldas Aktiv 118 / 120 40% 1 10.11.2026 -
Akinkunmi Amoo Ismaily Aktiv 124 / 131 40% 1 09.11.2026 -
Conrad Wallem Valerenga Aktiv 130 / 116 40% 1 09.11.2026 -
Brian Rodríguez Club America Aktiv 128 / 141 40% 1 07.11.2026 -
Richard Ledezma Guadalajara Aktiv 127 / 138 40% 1 07.11.2026 -
Jannenson Sarmiento Junior Aktiv 117 / 135 40% 1 06.11.2026 -
Alex Luna Instituto Aktiv 140 / 138 40% 1 03.11.2026 -
Naïs Djouahra Arouca Aktiv 121 / 131 40% 1 03.11.2026 -
Jesús Garza Tigres Aktiv 111 / 128 40% 1 02.11.2026 -
Cristian Espinoza Nashville SC Aktiv 136 / 118 40% 1 02.08.2026 -
Gianluca Prestianni Benfica Aktiv 130 / 146 40% 1 02.08.2026 -
Urko Izeta Cádiz Aktiv 121 / 125 40% 1 01.08.2026 -
Jordan Morris Seattle Sounders Aktiv 128 / 124 40% 1 01.08.2026 -
Ramy Bensebaini Borussia Dortmund Aktiv 143 / 150 40% 1 01.08.2026 -